Topaz Too — WCX6573 — position and weather

sailwx.info

Track history (hours):
 
Tides and Currents Weather Stations Pressure Air Temp Water Temp Dewpoint Dewpoint Depression Visibility Wind Speed Wind Dir Waves Ship Positions

Topaz Too

Owner: PIERROT, ALAN H, FRESNO, CA. More information available from US FCC via Universal Licensing System and Coast Guard Vessel Documentation Center.

Last reported at 2017-Aug-21 21:04 UTC. Time now 2017-Sep-19 22:38 UTC.
Position N 32°42' W 117°20'.
Warning: this ship's position is 29 days out of date.

Length 15 m.

Type: Pleasure craft. MMSI: 338139898.

Date/timePositionNaut miles runAvg speedWind from/ knotsBaromVisibWave heightAir tempDewpointWater temp
2017-Aug-21 21:04N 32°42' W 117°20'110.8
2017-Aug-21 21:00N 32°42' W 117°21'510.6
2017-Aug-21 20:30N 32°46' W 117°26'510.3
2017-Aug-21 20:00N 32°49' W 117°31'510.0
2017-Aug-21 19:30N 32°52' W 117°35'510.1
2017-Aug-21 19:00N 32°55' W 117°40'510.7
2017-Aug-21 18:30N 32°59' W 117°45'510.3
2017-Aug-21 18:00N 33°02' W 117°50'  
2017-Aug-15 16:42N 33°01' W 117°47'210.0
2017-Aug-15 16:29N 32°59' W 117°45'510.2
2017-Aug-15 16:00N 32°56' W 117°41'510.2
2017-Aug-15 15:30N 32°53' W 117°36'510.3
2017-Aug-15 15:00N 32°50' W 117°32'510.2
2017-Aug-15 14:30N 32°46' W 117°27'510.2
2017-Aug-15 14:00N 32°43' W 117°22'610.0
2017-Aug-15 13:27N 32°39' W 117°17'  
Track history (hours):
 
Tides and Currents Weather Stations Pressure Air Temp Water Temp Dewpoint Dewpoint Depression Visibility Wind Speed Wind Dir Waves Ship Positions

Topaz Too

Owner: PIERROT, ALAN H, FRESNO, CA. More information available from US FCC via Universal Licensing System and Coast Guard Vessel Documentation Center.

Last reported at 2017-Aug-21 21:04 UTC. Time now 2017-Sep-19 22:38 UTC.
Position N 32°42' W 117°20'.
Warning: this ship's position is 29 days out of date.

Length 15 m.

Type: Pleasure craft. MMSI: 338139898.

Date/timePositionNaut miles runAvg speedWind from/ knotsBaromVisibWave heightAir tempDewpointWater temp
2017-Aug-21 21:04N 32°42' W 117°20'110.8
2017-Aug-21 21:00N 32°42' W 117°21'510.6
2017-Aug-21 20:30N 32°46' W 117°26'510.3
2017-Aug-21 20:00N 32°49' W 117°31'510.0
2017-Aug-21 19:30N 32°52' W 117°35'510.1
2017-Aug-21 19:00N 32°55' W 117°40'510.7
2017-Aug-21 18:30N 32°59' W 117°45'510.3
2017-Aug-21 18:00N 33°02' W 117°50'  
2017-Aug-15 16:42N 33°01' W 117°47'210.0
2017-Aug-15 16:29N 32°59' W 117°45'510.2
2017-Aug-15 16:00N 32°56' W 117°41'510.2
2017-Aug-15 15:30N 32°53' W 117°36'510.3
2017-Aug-15 15:00N 32°50' W 117°32'510.2
2017-Aug-15 14:30N 32°46' W 117°27'510.2
2017-Aug-15 14:00N 32°43' W 117°22'610.0
2017-Aug-15 13:27N 32°39' W 117°17'  

Dump ship's entire track history